createdAt,value
2023-05-04T00:00:44.525Z,11.99
2023-05-04T00:03:30.395Z,12.08
2023-05-04T00:05:57.685Z,11.98
2023-05-04T00:08:24.604Z,11.96
2023-05-04T00:10:51.592Z,11.90
2023-05-04T00:13:18.494Z,12.06
2023-05-04T00:15:45.473Z,11.98
2023-05-04T00:18:30.665Z,11.93
2023-05-04T00:20:57.687Z,11.86
2023-05-04T00:23:24.570Z,11.79
2023-05-04T00:25:51.522Z,11.70
2023-05-04T00:28:18.389Z,11.59
2023-05-04T00:30:45.326Z,11.74
2023-05-04T00:33:12.359Z,11.75
2023-05-04T00:36:16.821Z,11.71
2023-05-04T00:38:48.118Z,11.51
2023-05-04T00:41:15.386Z,11.36
2023-05-04T00:43:42.225Z,11.57
2023-05-04T00:46:11.301Z,11.51
2023-05-04T00:48:39.509Z,11.51
2023-05-04T00:51:26.090Z,11.45
2023-05-04T00:53:58.075Z,11.43
2023-05-04T00:56:25.842Z,11.36
2023-05-04T00:58:53.518Z,11.33
2023-05-04T01:01:21.553Z,11.34
2023-05-04T01:03:50.574Z,11.16
2023-05-04T01:06:20.563Z,11.14
2023-05-04T01:09:12.188Z,11.26
2023-05-04T01:12:07.034Z,11.29
2023-05-04T01:14:39.540Z,11.21
2023-05-04T01:17:08.088Z,11.18
2023-05-04T01:19:35.311Z,11.24
2023-05-04T01:22:04.111Z,11.12
2023-05-04T01:24:31.832Z,11.14
2023-05-04T01:27:24.453Z,11.23
2023-05-04T01:30:21.595Z,11.19
2023-05-04T01:32:50.276Z,11.18
2023-05-04T01:35:17.664Z,11.06
2023-05-04T01:37:47.111Z,11.17
2023-05-04T01:40:14.046Z,11.01
2023-05-04T01:42:41.007Z,11.00
2023-05-04T01:45:08.751Z,11.07
2023-05-04T01:47:35.709Z,10.95
2023-05-04T01:50:02.952Z,10.96
2023-05-04T01:52:30.042Z,11.12
2023-05-04T01:54:57.322Z,11.05
2023-05-04T01:57:25.466Z,11.09
2023-05-04T01:59:52.999Z,11.12
2023-05-04T02:02:19.914Z,11.04
2023-05-04T02:04:46.768Z,11.22
2023-05-04T02:07:13.740Z,11.18
2023-05-04T02:09:43.089Z,11.38
2023-05-04T02:12:10.083Z,11.28
2023-05-04T02:14:37.009Z,11.43
2023-05-04T02:17:04.371Z,11.46
2023-05-04T02:19:31.335Z,11.45
2023-05-04T02:21:58.329Z,11.51
2023-05-04T02:24:25.279Z,11.72
2023-05-04T02:26:52.163Z,11.85
2023-05-04T02:29:19.056Z,11.95
2023-05-04T02:31:46.022Z,11.99
2023-05-04T02:34:14.189Z,12.00
2023-05-04T02:36:46.975Z,12.19
2023-05-04T02:39:14.215Z,12.26
2023-05-04T02:41:41.118Z,12.23
2023-05-04T02:44:08.058Z,12.27
2023-05-04T02:46:34.901Z,12.36
2023-05-04T02:49:01.897Z,12.48
2023-05-04T02:51:28.739Z,12.55
2023-05-04T02:53:55.592Z,12.76
2023-05-04T02:56:22.479Z,12.91
2023-05-04T02:58:49.356Z,13.54
2023-05-04T03:01:16.245Z,15.37
2023-05-04T03:03:43.163Z,16.06
2023-05-04T03:06:10.093Z,16.51
2023-05-04T03:08:37.022Z,17.60
2023-05-04T03:11:03.861Z,17.86
2023-05-04T03:13:30.991Z,17.56
2023-05-04T03:15:58.599Z,17.17
2023-05-04T03:18:26.030Z,16.88
2023-05-04T03:20:53.681Z,16.97
2023-05-04T03:23:21.967Z,17.01
2023-05-04T03:25:48.921Z,17.28
2023-05-04T03:28:16.287Z,17.51
2023-05-04T03:30:43.225Z,17.73
2023-05-04T03:33:11.071Z,17.72
2023-05-04T03:35:37.997Z,17.76
2023-05-04T03:38:05.159Z,17.77
2023-05-04T03:40:32.229Z,17.86
2023-05-04T03:43:00.350Z,17.86
2023-05-04T03:45:27.381Z,17.95
2023-05-04T03:47:57.536Z,17.79
2023-05-04T03:50:25.720Z,17.63
2023-05-04T03:52:52.629Z,17.36
2023-05-04T03:55:22.019Z,17.47
2023-05-04T03:57:50.286Z,17.63
2023-05-04T04:00:17.766Z,17.34
2023-05-04T04:02:55.582Z,17.14
2023-05-04T04:05:22.610Z,17.33
2023-05-04T04:07:51.292Z,17.28
2023-05-04T04:10:18.408Z,17.28
2023-05-04T04:12:45.368Z,17.51
2023-05-04T04:15:12.573Z,17.46
2023-05-04T04:17:39.635Z,17.39
2023-05-04T04:20:07.467Z,17.44
2023-05-04T04:22:35.416Z,17.46
2023-05-04T04:25:02.364Z,17.37
2023-05-04T04:27:29.242Z,17.38
2023-05-04T04:29:56.173Z,17.31
2023-05-04T04:32:24.600Z,17.43
2023-05-04T04:34:51.675Z,17.47
2023-05-04T04:37:18.506Z,17.38
2023-05-04T04:39:45.494Z,17.41
2023-05-04T04:42:12.362Z,17.24
2023-05-04T04:44:39.342Z,17.26
2023-05-04T04:47:06.303Z,17.49
2023-05-04T04:49:33.357Z,17.51
2023-05-04T04:52:01.516Z,17.56
2023-05-04T04:54:28.725Z,17.52
2023-05-04T04:56:55.621Z,17.70
2023-05-04T12:04:52.782Z,23.66
2023-05-04T12:07:19.701Z,23.65
2023-05-04T12:09:48.001Z,23.53
2023-05-04T12:12:19.351Z,23.49
2023-05-04T12:14:54.157Z,23.55
2023-05-04T12:17:21.536Z,23.38
2023-05-04T12:19:53.750Z,23.42
2023-05-04T12:22:30.642Z,23.33
2023-05-04T12:24:57.751Z,23.45
2023-05-04T12:27:25.413Z,23.46
2023-05-04T12:29:52.659Z,23.69
2023-05-04T12:32:19.924Z,24.05
2023-05-04T12:34:47.046Z,23.99
2023-05-04T12:37:13.989Z,24.14
2023-05-04T12:39:40.890Z,24.44
2023-05-04T12:42:07.686Z,24.55
2023-05-04T12:44:34.619Z,24.36
2023-05-04T12:47:01.544Z,24.24
2023-05-04T12:49:28.496Z,23.78
2023-05-04T12:51:55.420Z,23.76
2023-05-04T12:54:22.427Z,23.65
2023-05-04T12:56:49.384Z,23.54
2023-05-04T12:59:16.312Z,23.55
2023-05-04T13:01:43.334Z,23.52
2023-05-04T13:04:10.324Z,23.67
2023-05-04T13:06:37.330Z,23.91
2023-05-04T13:09:04.228Z,23.82
2023-05-04T13:11:31.246Z,23.92
2023-05-04T13:13:58.134Z,24.04
2023-05-04T13:16:25.361Z,23.99
2023-05-04T13:18:52.330Z,23.98
2023-05-04T13:21:19.730Z,23.84
2023-05-04T13:23:46.697Z,23.67
2023-05-04T13:26:13.615Z,23.75
2023-05-04T13:28:40.633Z,23.76
2023-05-04T13:31:07.573Z,23.69
2023-05-04T13:33:34.474Z,23.70
2023-05-04T13:36:01.410Z,23.96
2023-05-04T13:38:28.627Z,23.71
2023-05-04T13:40:55.541Z,23.92
2023-05-04T13:43:24.111Z,24.04
2023-05-04T13:45:51.577Z,24.07
2023-05-04T13:48:18.525Z,23.93
2023-05-04T13:50:45.398Z,23.49
2023-05-04T13:53:12.626Z,23.31
2023-05-04T13:55:39.564Z,23.42
2023-05-04T13:58:06.537Z,23.40
2023-05-04T14:00:33.525Z,23.22
2023-05-04T14:03:00.677Z,23.49
2023-05-04T14:05:27.692Z,23.40
2023-05-04T14:07:57.868Z,23.52
2023-05-04T14:10:24.930Z,23.27
2023-05-04T14:12:56.122Z,23.18
2023-05-04T14:15:25.745Z,23.61
2023-05-04T14:17:52.662Z,23.66
2023-05-04T14:20:19.657Z,23.55
2023-05-04T14:22:46.637Z,23.51
2023-05-04T14:25:18.917Z,23.22
2023-05-04T14:27:45.968Z,23.31
2023-05-04T14:30:15.725Z,23.47
2023-05-04T14:32:42.892Z,23.35
2023-05-04T14:35:12.961Z,23.39
2023-05-04T14:37:40.465Z,23.22
2023-05-04T14:40:09.070Z,23.31
2023-05-04T14:42:40.218Z,23.28
2023-05-04T14:45:16.381Z,23.00
2023-05-04T14:47:43.423Z,22.94
2023-05-04T14:50:10.862Z,22.85
2023-05-04T14:52:37.968Z,22.91
2023-05-04T14:55:05.218Z,22.88
2023-05-04T14:57:37.983Z,22.83
2023-05-04T15:00:06.307Z,22.90
2023-05-04T15:02:34.329Z,22.62
2023-05-04T15:05:02.530Z,22.55
2023-05-04T15:07:29.447Z,22.59
2023-05-04T15:10:00.141Z,22.51
2023-05-04T15:12:27.232Z,22.39
2023-05-04T15:14:57.870Z,22.24
2023-05-04T15:17:26.161Z,21.97
2023-05-04T15:19:55.668Z,21.71
2023-05-04T15:22:22.759Z,21.77
2023-05-04T15:24:49.579Z,21.64
2023-05-04T15:27:18.572Z,21.58
2023-05-04T15:29:45.791Z,21.36
2023-05-04T15:32:12.825Z,21.13
2023-05-04T15:34:42.546Z,21.28
2023-05-04T15:37:13.156Z,21.28
2023-05-04T15:39:40.393Z,21.33
2023-05-04T15:42:07.443Z,21.14
2023-05-04T15:44:34.405Z,20.98
2023-05-04T15:47:01.418Z,20.79
2023-05-04T15:49:28.474Z,20.96
2023-05-04T15:51:55.368Z,20.76
2023-05-04T15:54:22.345Z,20.64
2023-05-04T15:56:49.633Z,20.42
2023-05-04T15:59:16.490Z,20.58
2023-05-04T16:01:43.693Z,20.45
2023-05-04T16:04:12.902Z,20.51
2023-05-04T16:06:40.051Z,20.16
2023-05-04T16:09:12.022Z,20.16
2023-05-04T16:11:42.050Z,20.14
2023-05-04T16:14:08.963Z,20.09
2023-05-04T16:16:35.837Z,20.01
2023-05-04T16:19:03.071Z,19.75
2023-05-04T16:21:29.946Z,19.82
2023-05-04T16:23:56.838Z,19.74
2023-05-04T16:26:26.697Z,19.61
2023-05-04T16:28:53.965Z,19.42
2023-05-04T16:31:21.057Z,19.45
2023-05-04T16:33:47.904Z,19.39
2023-05-04T16:36:15.046Z,19.34
2023-05-04T16:38:42.177Z,19.32
2023-05-04T16:41:09.383Z,19.27
2023-05-04T16:43:36.269Z,19.10
2023-05-04T16:46:03.310Z,19.03
2023-05-04T16:48:30.634Z,18.95
2023-05-04T16:50:57.580Z,18.92
2023-05-04T16:53:24.726Z,18.78
2023-05-04T16:55:52.167Z,18.75
2023-05-04T16:58:19.191Z,18.61
2023-05-04T17:00:46.037Z,18.25
2023-05-04T17:03:13.125Z,17.97
2023-05-04T17:05:40.094Z,17.74
2023-05-04T17:08:06.938Z,17.71
2023-05-04T17:10:33.745Z,17.73
2023-05-04T17:13:02.278Z,17.59
2023-05-04T17:15:29.569Z,17.42
2023-05-04T17:17:56.447Z,17.30
2023-05-04T17:20:30.693Z,17.30
2023-05-04T17:22:57.795Z,17.23
2023-05-04T17:25:25.640Z,17.08
2023-05-04T17:27:53.747Z,17.07
2023-05-04T17:30:20.952Z,17.07
2023-05-04T17:32:47.911Z,17.01
2023-05-04T17:35:24.158Z,16.86
2023-05-04T17:37:52.446Z,16.81
2023-05-04T17:40:19.906Z,16.55
2023-05-04T17:42:46.921Z,16.73
2023-05-04T17:45:14.000Z,16.63
2023-05-04T17:47:41.136Z,16.63
2023-05-04T17:50:08.507Z,16.54
2023-05-04T17:52:35.648Z,16.43
2023-05-04T17:55:02.583Z,16.45
2023-05-04T17:57:29.612Z,16.47
2023-05-04T17:59:56.518Z,16.35
2023-05-04T18:02:23.486Z,16.34
2023-05-04T18:04:50.427Z,16.25
2023-05-04T18:07:17.370Z,16.24
2023-05-04T18:09:44.295Z,15.98
2023-05-04T18:12:11.246Z,16.01
2023-05-04T18:14:38.136Z,16.04
2023-05-04T18:17:08.138Z,16.01
2023-05-04T18:19:34.978Z,15.95
2023-05-04T18:22:01.841Z,16.03
2023-05-04T18:24:28.917Z,15.92
2023-05-04T18:26:55.781Z,15.87
2023-05-04T18:29:22.859Z,15.76
2023-05-04T18:31:49.783Z,15.76
2023-05-04T18:34:16.683Z,15.82
2023-05-04T18:36:43.853Z,15.87
2023-05-04T18:39:10.738Z,15.94
2023-05-04T18:41:37.803Z,15.98
2023-05-04T18:44:15.312Z,15.91
2023-05-04T18:46:42.342Z,15.85
2023-05-04T18:49:09.349Z,15.72
2023-05-04T18:51:36.470Z,15.81
2023-05-04T18:54:03.534Z,15.83
2023-05-04T18:56:30.682Z,15.83
2023-05-04T18:58:57.636Z,15.81
2023-05-04T19:01:24.895Z,15.71
2023-05-04T19:03:51.840Z,15.61
2023-05-04T19:06:18.936Z,15.55
2023-05-04T19:08:45.876Z,15.51
2023-05-04T19:11:12.823Z,15.47
2023-05-04T19:13:39.746Z,15.50
2023-05-04T19:16:11.797Z,15.41
2023-05-04T19:18:38.799Z,15.42
2023-05-04T19:21:06.206Z,15.43
2023-05-04T19:23:35.981Z,15.29
2023-05-04T19:26:02.956Z,15.34
2023-05-04T19:28:30.610Z,15.34
2023-05-04T19:30:57.716Z,15.34
2023-05-04T19:33:30.348Z,15.38
2023-05-04T19:36:03.955Z,15.33
2023-05-04T19:38:30.785Z,15.35
2023-05-04T19:40:57.726Z,15.36
2023-05-04T19:43:24.598Z,15.25
2023-05-04T19:45:51.621Z,15.08
2023-05-04T19:48:18.650Z,15.24
2023-05-04T19:50:45.560Z,15.20
2023-05-04T19:53:15.176Z,15.28
2023-05-04T19:55:42.586Z,15.23
2023-05-04T19:58:09.465Z,15.21
2023-05-04T20:00:37.435Z,15.02
2023-05-04T20:03:04.962Z,15.21
2023-05-04T20:05:32.033Z,15.29
2023-05-04T20:07:59.391Z,15.25
2023-05-04T20:10:26.408Z,15.37
2023-05-04T20:12:53.427Z,15.40
2023-05-04T20:15:20.510Z,15.24
2023-05-04T20:17:47.383Z,15.33
2023-05-04T20:20:14.544Z,15.20
2023-05-04T20:22:41.433Z,15.30
2023-05-04T20:25:09.029Z,15.27
2023-05-04T20:27:36.074Z,15.33
2023-05-04T20:30:03.293Z,15.42
2023-05-04T20:32:30.180Z,15.33
2023-05-04T20:34:57.509Z,15.08
2023-05-04T20:37:24.371Z,15.43
2023-05-04T20:39:51.952Z,15.43
2023-05-04T20:42:19.053Z,15.57
2023-05-04T20:44:48.421Z,15.40
2023-05-04T20:47:15.540Z,15.39
2023-05-04T20:49:42.488Z,15.21
2023-05-04T20:52:09.984Z,15.19
2023-05-04T20:54:37.121Z,15.20
2023-05-04T20:57:15.868Z,15.18
2023-05-04T20:59:42.956Z,15.11
2023-05-04T21:02:10.012Z,15.06
2023-05-04T21:04:37.154Z,15.04
2023-05-04T21:07:04.085Z,14.88
2023-05-04T21:09:31.060Z,14.99
2023-05-04T21:11:58.064Z,14.99
2023-05-04T21:14:25.111Z,15.13
2023-05-04T21:16:52.076Z,15.18
2023-05-04T21:19:19.334Z,15.19
2023-05-04T21:21:46.337Z,15.15
2023-05-04T21:24:13.774Z,15.21
2023-05-04T21:26:41.900Z,15.19
2023-05-04T21:29:11.671Z,15.24
2023-05-04T21:31:38.989Z,15.31
2023-05-04T21:34:06.074Z,15.33
2023-05-04T21:36:33.006Z,15.28
2023-05-04T21:39:00.006Z,15.15
2023-05-04T21:41:26.980Z,15.38
2023-05-04T21:43:54.112Z,15.39
2023-05-04T21:46:20.957Z,15.45
2023-05-04T21:48:47.922Z,15.38
2023-05-04T21:51:14.823Z,15.47
2023-05-04T21:53:44.744Z,15.64
2023-05-04T21:56:12.141Z,15.47
2023-05-04T21:58:39.816Z,15.62
2023-05-04T22:01:08.226Z,15.69
2023-05-04T22:03:35.885Z,15.63
2023-05-04T22:06:02.857Z,15.77
2023-05-04T22:08:29.732Z,15.85
2023-05-04T22:10:57.690Z,15.86
2023-05-04T22:13:25.021Z,15.89
2023-05-04T22:15:51.963Z,15.88
2023-05-04T22:18:19.265Z,15.94
2023-05-04T22:20:46.436Z,16.00
2023-05-04T22:23:14.221Z,15.87
2023-05-04T22:25:41.376Z,15.93
2023-05-04T22:28:08.232Z,15.97
2023-05-04T22:30:35.161Z,15.90
2023-05-04T22:33:02.327Z,16.02
2023-05-04T22:35:29.183Z,15.69
2023-05-04T22:37:56.118Z,15.54
2023-05-04T22:40:23.206Z,15.44
2023-05-04T22:42:50.077Z,15.37
2023-05-04T22:45:17.070Z,15.36
2023-05-04T22:47:44.563Z,15.16
2023-05-04T22:50:11.539Z,15.05
2023-05-04T22:52:38.396Z,15.02
2023-05-04T22:55:06.010Z,15.03
2023-05-04T22:57:32.955Z,15.22
2023-05-04T22:59:59.887Z,15.03
2023-05-04T23:02:27.033Z,15.10
2023-05-04T23:04:53.938Z,14.90
2023-05-04T23:07:20.795Z,15.02
2023-05-04T23:09:47.783Z,15.11
2023-05-04T23:12:15.289Z,15.02
2023-05-04T23:14:42.162Z,15.17
2023-05-04T23:17:09.416Z,15.26
2023-05-04T23:19:36.805Z,15.29
2023-05-04T23:22:03.701Z,15.30
2023-05-04T23:24:35.855Z,15.30
2023-05-04T23:27:02.829Z,15.24
2023-05-04T23:29:29.704Z,15.32
2023-05-04T23:31:56.748Z,15.17
2023-05-04T23:34:23.717Z,15.23
2023-05-04T23:36:53.185Z,15.15
2023-05-04T23:39:20.188Z,14.85
2023-05-04T23:41:47.123Z,15.16
2023-05-04T23:44:14.012Z,15.16
2023-05-04T23:46:40.924Z,15.16
2023-05-04T23:49:07.734Z,15.24
2023-05-04T23:51:34.841Z,15.12
2023-05-04T23:54:01.755Z,15.22
2023-05-04T23:56:28.850Z,15.08
2023-05-04T23:58:55.644Z,15.11
